Time;durP1;ratioP1;P1;durP2;ratioP2;P2;SDS_P1;SDS_P2;PMS_P1;PMS_P2;Temp;Humidity;BMP_temperature;BMP_pressure;BME280_temperature;BME280_humidity;BME280_pressure;Samples;Min_cycle;Max_cycle;Signal;HPM_P1;HPM_P2
2022/08/23 00:01:21;;;;;;;5.25;3.42;;;13.40;99.90;;;;;;5046298;28;20098;-37
2022/08/23 00:03:47;;;;;;;5.72;4.15;;;13.40;99.90;;;;;;5045442;28;20542;-37
2022/08/23 00:06:13;;;;;;;3.38;2.40;;;13.40;99.90;;;;;;5045821;28;20064;-37
2022/08/23 00:08:39;;;;;;;2.33;1.40;;;13.40;99.90;;;;;;5045762;28;20575;-37
2022/08/23 00:11:22;;;;;;;2.95;1.77;;;13.30;99.90;;;;;;5046126;28;20388;-37
2022/08/23 00:13:48;;;;;;;3.50;2.25;;;13.30;99.90;;;;;;5046094;28;20467;-37
2022/08/23 00:16:14;;;;;;;4.80;2.55;;;13.30;99.90;;;;;;5049740;28;20394;-37
2022/08/23 00:18:40;;;;;;;4.75;2.63;;;13.30;99.90;;;;;;5050167;28;20047;-37
2022/08/23 00:21:06;;;;;;;3.75;2.15;;;13.30;99.90;;;;;;5049986;28;20372;-37
2022/08/23 00:23:31;;;;;;;2.67;2.17;;;13.20;99.90;;;;;;5050425;28;20048;-37
2022/08/23 00:26:01;;;;;;;2.80;1.90;;;13.20;99.90;;;;;;5049803;28;20045;-37
2022/08/23 00:28:27;;;;;;;3.38;1.58;;;13.10;99.90;;;;;;5049904;28;20145;-37
2022/08/23 00:30:53;;;;;;;2.75;2.45;;;13.20;99.90;;;;;;5049595;28;20048;-37
2022/08/23 00:33:18;;;;;;;4.45;2.88;;;13.10;99.90;;;;;;5050364;28;20041;-37
2022/08/23 00:35:44;;;;;;;3.08;1.60;;;13.10;99.90;;;;;;5049639;28;20526;-37
2022/08/23 00:38:10;;;;;;;2.42;1.73;;;13.10;99.90;;;;;;5049292;28;20041;-36
2022/08/23 00:40:36;;;;;;;4.88;3.03;;;13.10;99.90;;;;;;5049579;28;20057;-37
2022/08/23 00:49:13;;;;;;;4.00;3.42;;;13.00;99.90;;;;;;5049526;28;20399;-37
2022/08/23 00:52:09;;;;;;;5.57;3.45;;;12.90;99.90;;;;;;5049945;28;20052;-37
2022/08/23 00:54:38;;;;;;;3.88;3.13;;;12.90;99.90;;;;;;5047371;28;20151;-37
2022/08/23 00:57:12;;;;;;;2.83;2.60;;;12.90;99.90;;;;;;5049048;28;20052;-37
2022/08/23 00:59:38;;;;;;;3.97;2.97;;;12.90;99.90;;;;;;5049709;28;20442;-37
2022/08/23 01:02:05;;;;;;;6.40;3.53;;;12.80;99.90;;;;;;5049520;28;20051;-37
2022/08/23 01:04:37;;;;;;;3.92;3.55;;;12.80;99.90;;;;;;5049801;28;20059;-37
2022/08/23 01:07:14;;;;;;;3.42;2.72;;;12.80;99.90;;;;;;5049612;28;20041;-36
2022/08/23 01:09:42;;;;;;;3.25;2.50;;;12.80;99.90;;;;;;5048847;28;20071;-37
2022/08/23 01:12:15;;;;;;;4.47;2.95;;;12.80;99.90;;;;;;5048630;28;20052;-37
2022/08/23 01:14:46;;;;;;;4.15;3.47;;;12.60;99.90;;;;;;5049145;28;20418;-37
2022/08/23 01:17:17;;;;;;;3.58;3.08;;;12.70;99.90;;;;;;5048178;28;20495;-36
2022/08/23 01:19:51;;;;;;;4.18;3.40;;;12.70;99.90;;;;;;5048795;28;20111;-37
2022/08/23 01:22:33;;;;;;;6.38;4.40;;;12.60;99.90;;;;;;5048696;28;20116;-37
2022/08/23 01:24:59;;;;;;;4.43;2.30;;;12.60;99.90;;;;;;5048407;28;20116;-37
2022/08/23 01:27:26;;;;;;;2.00;1.10;;;12.60;99.90;;;;;;5047349;28;20041;-36
2022/08/23 01:29:52;;;;;;;3.63;2.08;;;12.50;99.90;;;;;;5048218;28;20037;-37
2022/08/23 01:32:18;;;;;;;3.47;1.92;;;12.50;99.90;;;;;;5048128;28;20639;-37
2022/08/23 01:34:44;;;;;;;3.22;2.22;;;12.90;99.90;;;;;;5048133;28;20441;-36
2022/08/23 01:37:10;;;;;;;2.70;1.67;;;12.50;99.90;;;;;;5048006;28;20106;-37
2022/08/23 01:39:36;;;;;;;2.28;1.52;;;12.50;99.90;;;;;;5049039;28;20056;-37
2022/08/23 01:42:03;;;;;;;5.78;3.00;;;13.20;99.90;;;;;;5048500;28;20056;-36
2022/08/23 01:44:29;;;;;;;6.60;2.80;;;12.40;99.90;;;;;;5048624;28;20276;-37
2022/08/23 01:46:54;;;;;;;8.55;2.60;;;12.40;99.90;;;;;;5048655;28;20080;-36
2022/08/23 01:49:20;;;;;;;20.48;2.67;;;13.10;99.90;;;;;;5046490;28;20083;-37
2022/08/23 01:51:46;;;;;;;19.63;2.67;;;12.40;99.90;;;;;;5048155;28;20045;-37
2022/08/23 01:54:12;;;;;;;27.75;3.72;;;12.60;99.90;;;;;;5048300;28;20115;-36
2022/08/23 01:56:39;;;;;;;15.07;2.90;;;12.40;99.90;;;;;;5048115;28;20041;-37
2022/08/23 01:59:12;;;;;;;13.57;3.10;;;12.30;99.90;;;;;;5047964;28;20753;-37
2022/08/23 02:01:37;;;;;;;;;;;12.80;99.90;;;;;;5048947;28;20045;-36
2022/08/23 02:04:04;;;;;;;3.55;1.98;;;12.30;99.90;;;;;;5048056;28;19927;-37
2022/08/23 02:06:30;;;;;;;4.40;2.97;;;12.60;99.90;;;;;;5047876;28;20079;-37
2022/08/23 02:09:02;;;;;;;4.07;3.50;;;12.30;99.90;;;;;;5047656;28;20219;-37
2022/08/23 02:11:37;;;;;;;4.22;3.60;;;12.30;99.90;;;;;;5047433;28;20057;-36
2022/08/23 02:14:12;;;;;;;4.18;2.70;;;12.30;99.90;;;;;;5047127;28;20651;-37
2022/08/23 02:16:47;;;;;;;6.93;3.15;;;12.30;99.90;;;;;;5047700;28;20033;-36
2022/08/23 02:19:14;;;;;;;8.65;3.45;;;12.20;99.90;;;;;;5047391;28;20503;-36
2022/08/23 02:21:41;;;;;;;7.55;3.80;;;12.00;99.90;;;;;;5047875;28;20186;-36
2022/08/23 02:24:13;;;;;;;5.82;4.20;;;11.90;99.90;;;;;;5047291;28;20099;-36
2022/08/23 02:26:42;;;;;;;7.22;3.88;;;12.10;99.90;;;;;;5047348;28;20037;-37
2022/08/23 02:29:08;;;;;;;5.90;3.88;;;12.10;99.90;;;;;;5047431;28;20037;-37
2022/08/23 02:31:34;;;;;;;5.50;4.63;;;12.00;99.90;;;;;;5047581;28;20045;-37
2022/08/23 02:34:00;;;;;;;4.07;3.65;;;12.00;99.90;;;;;;5047498;28;20048;-37
2022/08/23 02:36:27;;;;;;;5.70;2.90;;;12.10;99.90;;;;;;5047053;28;20047;-37
2022/08/23 02:38:54;;;;;;;6.50;3.08;;;11.70;99.90;;;;;;5047048;28;20040;-36
2022/08/23 02:41:20;;;;;;;31.83;5.20;;;11.90;99.90;;;;;;5046977;28;20459;-37
2022/08/23 02:43:46;;;;;;;153.30;10.50;;;11.90;99.90;;;;;;5047082;28;20064;-37
2022/08/23 02:46:11;;;;;;;8.23;5.10;;;11.90;99.90;;;;;;5046774;28;20055;-37
2022/08/23 02:48:37;;;;;;;8.27;5.00;;;11.90;99.90;;;;;;5046999;28;20052;-37
2022/08/23 02:51:06;;;;;;;6.55;4.05;;;11.80;99.90;;;;;;5046900;28;20360;-37
2022/08/23 02:53:32;;;;;;;3.95;3.38;;;11.90;99.90;;;;;;5047436;28;20037;-36
2022/08/23 02:55:59;;;;;;;3.72;2.97;;;11.80;99.90;;;;;;5046768;28;20391;-37
2022/08/23 02:58:25;;;;;;;4.53;2.83;;;11.50;99.90;;;;;;5046363;28;20522;-37
2022/08/23 03:00:52;;;;;;;5.60;3.17;;;12.00;99.90;;;;;;5046373;28;20045;-36
2022/08/23 03:03:20;;;;;;;51.65;6.78;;;12.30;99.90;;;;;;5046555;28;20076;-36
2022/08/23 03:05:46;;;;;;;110.13;10.32;;;11.70;99.90;;;;;;5046499;28;20047;-37
2022/08/23 03:08:12;;;;;;;141.93;12.70;;;12.40;99.90;;;;;;5045928;28;20148;-37
2022/08/23 03:10:45;;;;;;;145.55;10.98;;;11.60;99.90;;;;;;5046587;28;20116;-37
2022/08/23 03:13:11;;;;;;;11.73;5.18;;;11.60;99.90;;;;;;5046803;28;20158;-37
2022/08/23 03:15:39;;;;;;;7.03;4.38;;;11.80;99.90;;;;;;5046881;28;20048;-36
2022/08/23 03:18:05;;;;;;;10.20;4.78;;;11.60;99.90;;;;;;5045079;28;20045;-37
2022/08/23 03:20:31;;;;;;;13.32;5.38;;;11.50;99.90;;;;;;5046536;28;20175;-37
2022/08/23 03:22:57;;;;;;;18.33;6.28;;;11.50;99.90;;;;;;5046693;28;20157;-37
2022/08/23 03:25:23;;;;;;;9.30;4.90;;;11.50;99.90;;;;;;5045926;28;20630;-37
2022/08/23 03:27:49;;;;;;;11.23;5.95;;;11.50;99.90;;;;;;5046295;28;20045;-37
2022/08/23 03:30:14;;;;;;;13.25;7.10;;;11.30;99.90;;;;;;5045936;28;20041;-37
2022/08/23 03:32:40;;;;;;;28.73;7.43;;;11.40;99.90;;;;;;5046302;28;20040;-37
2022/08/23 03:35:06;;;;;;;46.60;8.50;;;11.70;99.90;;;;;;5044829;28;20049;-37
2022/08/23 03:37:32;;;;;;;80.10;12.15;;;11.40;99.90;;;;;;5045785;28;20554;-36
2022/08/23 03:39:58;;;;;;;13.75;7.80;;;12.10;99.90;;;;;;5046277;28;20109;-37
2022/08/23 03:42:24;;;;;;;109.93;11.52;;;11.40;99.90;;;;;;5045954;28;20134;-37
2022/08/23 03:44:50;;;;;;;11.20;7.00;;;11.50;99.90;;;;;;5046743;28;20146;-37
2022/08/23 03:47:16;;;;;;;13.50;6.97;;;11.50;99.90;;;;;;5046578;28;20041;-37
2022/08/23 03:49:42;;;;;;;13.13;7.95;;;11.40;99.90;;;;;;5047984;28;20547;-37
2022/08/23 03:52:08;;;;;;;160.57;13.90;;;11.40;99.90;;;;;;5050801;28;20052;-37
2022/08/23 03:54:34;;;;;;;183.30;15.50;;;11.50;99.90;;;;;;5050492;28;20125;-37
2022/08/23 03:57:04;;;;;;;104.75;16.33;;;11.50;99.90;;;;;;5049252;28;20040;-37
2022/08/23 03:59:31;;;;;;;65.53;10.95;;;11.50;99.90;;;;;;5050531;28;20048;-37
2022/08/23 04:01:57;;;;;;;114.30;14.30;;;11.50;99.90;;;;;;5050494;28;20083;-37
2022/08/23 04:04:23;;;;;;;55.40;11.48;;;11.40;99.90;;;;;;5050718;28;20037;-37
2022/08/23 04:06:49;;;;;;;44.78;10.73;;;11.40;99.90;;;;;;5050648;28;20777;-37
2022/08/23 04:09:15;;;;;;;99.97;12.07;;;11.40;99.90;;;;;;5050493;28;20057;-37
2022/08/23 04:11:42;;;;;;;91.57;11.88;;;11.30;99.90;;;;;;5050481;28;20359;-37
2022/08/23 04:14:08;;;;;;;186.23;15.13;;;11.40;99.90;;;;;;5050367;28;20494;-36
2022/08/23 04:16:39;;;;;;;83.65;13.82;;;11.40;99.90;;;;;;5050006;28;20118;-36
2022/08/23 04:19:11;;;;;;;51.47;12.68;;;11.20;99.90;;;;;;5050096;28;20123;-37
2022/08/23 04:21:38;;;;;;;139.25;17.67;;;11.70;99.90;;;;;;5049727;28;20462;-37
2022/08/23 04:24:04;;;;;;;124.57;17.77;;;11.70;99.90;;;;;;5050094;28;20052;-37
2022/08/23 04:26:29;;;;;;;111.47;13.77;;;11.80;99.90;;;;;;5049722;28;20363;-36
2022/08/23 04:28:56;;;;;;;86.18;14.73;;;11.60;99.90;;;;;;5049807;28;20048;-37
2022/08/23 04:31:24;;;;;;;69.85;13.00;;;12.20;99.90;;;;;;5049574;28;20048;-36
2022/08/23 04:33:51;;;;;;;71.70;13.18;;;11.90;99.90;;;;;;5049844;28;20087;-37
2022/08/23 04:36:17;;;;;;;145.23;16.67;;;11.80;99.90;;;;;;5049670;28;20049;-37
2022/08/23 04:38:42;;;;;;;123.00;16.58;;;12.50;99.90;;;;;;5049211;28;20045;-37
2022/08/23 04:43:55;;;;;;;81.97;16.25;;;12.20;99.90;;;;;;5049356;28;20052;-37
2022/08/23 04:46:20;;;;;;;56.08;14.52;;;12.20;99.90;;;;;;5049693;28;20048;-37
2022/08/23 04:48:47;;;;;;;86.82;18.23;;;12.10;99.90;;;;;;5049635;28;20049;-37
2022/08/23 04:51:14;;;;;;;31.38;13.02;;;13.00;99.90;;;;;;5049536;28;20047;-37
2022/08/23 04:53:40;;;;;;;24.17;11.45;;;11.90;99.90;;;;;;5049480;28;20066;-37
2022/08/23 04:56:07;;;;;;;12.45;8.88;;;11.70;99.90;;;;;;5049137;28;20503;-37
2022/08/23 04:58:35;;;;;;;9.57;7.85;;;12.00;99.90;;;;;;5049113;28;20045;-37
2022/08/23 05:01:03;;;;;;;17.10;9.02;;;12.00;99.90;;;;;;5049285;28;20053;-37
2022/08/23 05:03:30;;;;;;;24.42;10.32;;;12.00;99.90;;;;;;5049088;28;20120;-36
2022/08/23 05:05:57;;;;;;;13.93;11.32;;;12.00;99.90;;;;;;5049096;28;20580;-37
2022/08/23 05:08:23;;;;;;;14.00;10.43;;;11.90;99.90;;;;;;5048991;28;20056;-37
2022/08/23 05:10:49;;;;;;;6.00;5.15;;;12.10;99.90;;;;;;5049199;28;20072;-37
2022/08/23 05:13:15;;;;;;;6.15;4.75;;;12.10;99.90;;;;;;5049560;28;20709;-36
2022/08/23 05:15:43;;;;;;;4.82;4.03;;;12.10;99.90;;;;;;5049068;28;20079;-37
2022/08/23 05:18:09;;;;;;;4.35;3.47;;;12.40;99.90;;;;;;5049021;28;20045;-37
2022/08/23 05:20:35;;;;;;;4.65;3.20;;;12.50;99.90;;;;;;5049001;28;20041;-37
2022/08/23 05:23:01;;;;;;;5.20;2.97;;;12.20;99.90;;;;;;5048975;28;20393;-37
2022/08/23 05:25:48;;;;;;;3.80;2.92;;;12.50;99.90;;;;;;5048822;28;20053;-37
2022/08/23 05:28:13;;;;;;;4.40;4.00;;;12.50;99.90;;;;;;5048105;28;20103;-37
2022/08/23 05:30:39;;;;;;;6.80;4.35;;;12.80;99.90;;;;;;5048326;28;20045;-37
2022/08/23 05:33:04;;;;;;;5.95;4.00;;;12.90;99.90;;;;;;5048505;28;20364;-37
2022/08/23 05:35:31;;;;;;;4.20;3.80;;;13.20;99.90;;;;;;5048593;28;20124;-37
2022/08/23 05:37:59;;;;;;;2.90;2.33;;;13.10;99.90;;;;;;5048510;28;20045;-37
2022/08/23 05:40:25;;;;;;;1.60;1.50;;;14.00;99.90;;;;;;5048294;28;20506;-37
2022/08/23 05:42:51;;;;;;;2.72;2.53;;;14.80;99.90;;;;;;5048458;28;20398;-37
2022/08/23 05:45:17;;;;;;;2.60;2.40;;;15.40;99.90;;;;;;5047104;28;20049;-37
2022/08/23 05:47:43;;;;;;;2.97;2.20;;;16.00;99.90;;;;;;5048693;28;20120;-37
2022/08/23 05:50:09;;;;;;;2.80;2.60;;;15.90;99.90;;;;;;5048099;28;20045;-37
2022/08/23 05:52:35;;;;;;;4.15;3.30;;;16.20;99.90;;;;;;5047869;28;20446;-37
2022/08/23 05:55:01;;;;;;;8.35;6.55;;;16.50;99.90;;;;;;5048156;28;20045;-37
2022/08/23 05:57:27;;;;;;;6.75;3.58;;;16.50;99.90;;;;;;5048155;28;20049;-37
2022/08/23 05:59:53;;;;;;;3.53;2.80;;;16.50;99.90;;;;;;5047729;28;20051;-37
2022/08/23 06:02:18;;;;;;;3.67;2.53;;;17.00;99.90;;;;;;5048316;28;20045;-37
2022/08/23 06:04:44;;;;;;;4.63;4.07;;;17.10;99.90;;;;;;5048055;28;20045;-37
2022/08/23 06:07:10;;;;;;;3.53;3.22;;;17.30;99.90;;;;;;5048006;28;20099;-37
2022/08/23 06:09:36;;;;;;;3.03;2.72;;;17.60;99.90;;;;;;5045995;28;20057;-37
2022/08/23 06:12:02;;;;;;;5.45;4.95;;;17.60;99.90;;;;;;5047109;28;20098;-37
2022/08/23 06:14:28;;;;;;;5.43;4.28;;;18.00;99.90;;;;;;5047870;28;20048;-38
2022/08/23 06:16:54;;;;;;;11.18;10.07;;;18.90;99.90;;;;;;5047574;28;20037;-37
2022/08/23 06:19:20;;;;;;;11.50;9.40;;;19.00;99.90;;;;;;5047774;28;20086;-38
2022/08/23 06:21:46;;;;;;;9.40;8.43;;;20.00;99.90;;;;;;5047475;28;20083;-37
2022/08/23 06:24:12;;;;;;;12.30;10.35;;;21.10;99.90;;;;;;5047742;28;20049;-37
2022/08/23 06:26:41;;;;;;;9.65;8.85;;;21.10;99.90;;;;;;5047265;28;20045;-37
2022/08/23 06:29:14;;;;;;;12.02;9.60;;;21.30;99.90;;;;;;5047105;28;20465;-38
2022/08/23 06:31:46;;;;;;;12.60;11.10;;;21.30;99.90;;;;;;5047540;28;20051;-37
2022/08/23 06:34:22;;;;;;;10.75;9.65;;;20.60;99.90;;;;;;5046869;28;20705;-38
2022/08/23 06:36:51;;;;;;;12.35;10.38;;;20.40;99.90;;;;;;5045500;28;20049;-37
2022/08/23 06:39:19;;;;;;;11.38;10.27;;;21.00;99.90;;;;;;5046944;28;20417;-38
2022/08/23 06:41:47;;;;;;;11.50;10.15;;;20.80;99.90;;;;;;5046481;28;20048;-38
2022/08/23 06:44:13;;;;;;;10.70;9.30;;;20.80;99.90;;;;;;5042107;28;20076;-38
2022/08/23 06:46:39;;;;;;;11.00;9.18;;;20.90;99.90;;;;;;5046560;28;20123;-37
2022/08/23 06:49:06;;;;;;;9.70;7.82;;;20.90;99.90;;;;;;5047173;28;20128;-38
2022/08/23 06:51:38;;;;;;;8.73;7.93;;;20.90;99.90;;;;;;5047121;28;20049;-38
2022/08/23 06:54:07;;;;;;;9.68;7.63;;;21.10;99.90;;;;;;5047013;28;20037;-38
2022/08/23 06:56:34;;;;;;;9.57;7.00;;;22.10;99.90;;;;;;5047371;28;20051;-37
2022/08/23 06:59:03;;;;;;;7.03;6.32;;;23.10;99.90;;;;;;5046642;28;20045;-38
2022/08/23 07:01:37;;;;;;;7.40;6.70;;;23.90;99.90;;;;;;5046984;28;20051;-38
2022/08/23 07:04:06;;;;;;;11.52;7.32;;;24.40;96.70;;;;;;5046703;28;20045;-38
2022/08/23 07:06:31;;;;;;;3.97;2.22;;;23.60;97.30;;;;;;5046834;28;20084;-38
2022/08/23 07:08:58;;;;;;;6.57;6.05;;;23.80;96.50;;;;;;5046078;28;20519;-38
2022/08/23 07:11:24;;;;;;;8.35;5.78;;;23.40;96.60;;;;;;5046310;28;20060;-37
2022/08/23 07:13:51;;;;;;;8.68;6.85;;;23.10;97.80;;;;;;5046357;28;20045;-38
2022/08/23 07:16:17;;;;;;;10.57;6.88;;;22.80;98.70;;;;;;5046272;28;20051;-38
2022/08/23 07:18:45;;;;;;;7.05;6.05;;;22.60;99.10;;;;;;5045165;28;20033;-37
2022/08/23 07:21:11;;;;;;;8.00;6.95;;;22.40;99.60;;;;;;5046658;28;20041;-38
2022/08/23 07:23:38;;;;;;;10.38;5.45;;;22.30;99.90;;;;;;5046169;28;20041;-38
2022/08/23 07:26:09;;;;;;;8.40;4.47;;;22.20;99.90;;;;;;5046044;28;20490;-37
2022/08/23 07:28:35;;;;;;;4.90;3.53;;;22.10;99.70;;;;;;5046275;28;20112;-38
2022/08/23 07:31:26;;;;;;;9.00;6.28;;;22.00;99.50;;;;;;5045250;28;20206;-38
2022/08/23 07:33:54;;;;;;;5.47;4.97;;;21.90;98.40;;;;;;5045492;28;20029;-38
2022/08/23 07:36:21;;;;;;;9.02;6.10;;;21.80;99.20;;;;;;5045934;28;20044;-38
2022/08/23 07:38:48;;;;;;;7.45;5.60;;;21.80;99.40;;;;;;5045848;28;20076;-37
2022/08/23 07:41:16;;;;;;;6.20;5.38;;;21.80;99.40;;;;;;5046071;28;20045;-38
2022/08/23 07:43:42;;;;;;;8.93;5.25;;;22.00;99.40;;;;;;5045580;28;20044;-37
2022/08/23 07:46:09;;;;;;;4.85;3.53;;;22.20;98.70;;;;;;5046338;28;20360;-37
2022/08/23 07:48:35;;;;;;;4.20;2.60;;;22.30;97.30;;;;;;5046414;28;20473;-38
2022/08/23 07:51:06;;;;;;;6.38;4.10;;;22.40;97.10;;;;;;5045799;28;20037;-37
2022/08/23 07:53:32;;;;;;;8.27;4.90;;;22.50;96.50;;;;;;5046053;28;20102;-38
2022/08/23 07:55:58;;;;;;;8.20;4.82;;;22.60;96.20;;;;;;5045805;28;20052;-38
2022/08/23 07:58:25;;;;;;;4.55;2.88;;;22.60;96.30;;;;;;5046155;28;20041;-38
2022/08/23 08:00:51;;;;;;;6.25;3.63;;;22.60;95.90;;;;;;5046022;28;20421;-38
2022/08/23 08:03:17;;;;;;;7.63;4.07;;;22.60;95.40;;;;;;5046041;28;20037;-38
2022/08/23 08:05:43;;;;;;;5.00;3.72;;;22.70;95.50;;;;;;5045752;28;20046;-38
2022/08/23 08:08:10;;;;;;;4.40;2.58;;;22.90;95.70;;;;;;5045099;28;20358;-38
2022/08/23 08:10:38;;;;;;;6.85;4.70;;;23.10;95.30;;;;;;5045702;28;20056;-38
2022/08/23 08:13:04;;;;;;;6.80;3.40;;;23.40;95.30;;;;;;5044737;28;20418;-38
2022/08/23 08:15:30;;;;;;;4.55;3.42;;;23.70;94.80;;;;;;5045118;28;20045;-37
2022/08/23 08:17:56;;;;;;;4.97;2.67;;;23.90;93.60;;;;;;5045198;28;20056;-38
2022/08/23 08:20:22;;;;;;;5.78;3.00;;;24.30;93.50;;;;;;5045655;28;20450;-38
2022/08/23 08:22:49;;;;;;;3.95;2.03;;;25.10;92.60;;;;;;5045422;28;20037;-38
2022/08/23 08:25:15;;;;;;;5.95;3.20;;;26.70;90.00;;;;;;5046128;28;20037;-38
2022/08/23 08:27:41;;;;;;;4.53;2.70;;;28.60;81.90;;;;;;5046054;28;20036;-38
2022/08/23 08:30:09;;;;;;;4.10;2.08;;;29.80;74.20;;;;;;5045783;28;20048;-38
2022/08/23 08:32:35;;;;;;;6.18;2.78;;;30.50;72.40;;;;;;5027858;28;20045;-38
2022/08/23 08:35:01;;;;;;;5.57;3.08;;;30.30;74.10;;;;;;5046073;28;20041;-38
2022/08/23 08:37:27;;;;;;;4.38;1.98;;;30.30;71.10;;;;;;5049635;28;20048;-38
2022/08/23 08:39:53;;;;;;;6.55;3.10;;;30.00;70.70;;;;;;5049108;28;20041;-38
2022/08/23 08:42:32;;;;;;;2.95;1.70;;;30.10;69.10;;;;;;5049395;28;20041;-38
2022/08/23 08:45:04;;;;;;;7.13;3.60;;;31.20;67.00;;;;;;5048725;28;20490;-38
2022/08/23 08:47:36;;;;;;;7.47;3.03;;;32.30;64.40;;;;;;5049348;28;20095;-38
2022/08/23 08:50:11;;;;;;;6.15;2.45;;;33.70;66.30;;;;;;5048328;28;20044;-40
2022/08/23 08:52:39;;;;;;;7.95;2.70;;;33.80;63.00;;;;;;5024449;28;20055;-39
2022/08/23 08:55:12;;;;;;;4.03;2.88;;;34.50;61.30;;;;;;5042492;28;20051;-40
2022/08/23 08:57:42;;;;;;;5.22;2.53;;;35.40;57.80;;;;;;5046874;28;20041;-40
2022/08/23 09:00:13;;;;;;;4.22;1.95;;;36.20;57.00;;;;;;5046442;28;20045;-42
2022/08/23 09:02:40;;;;;;;6.05;2.88;;;37.20;56.10;;;;;;5045940;28;20147;-42
2022/08/23 09:05:26;;;;;;;7.53;2.72;;;37.60;54.60;;;;;;5047241;28;20394;-45
2022/08/23 09:08:06;;;;;;;6.03;2.53;;;36.60;52.90;;;;;;5047022;28;20201;-42
2022/08/23 09:10:50;;;;;;;9.52;2.92;;;35.90;53.80;;;;;;5046020;28;20080;-42
2022/08/23 09:13:25;;;;;;;5.55;2.78;;;35.80;54.00;;;;;;5047048;28;20649;-43
2022/08/23 09:16:02;;;;;;;7.10;2.58;;;36.40;54.50;;;;;;5046995;28;20041;-42
2022/08/23 09:18:32;;;;;;;4.68;2.03;;;37.20;53.70;;;;;;5047459;28;20106;-42
2022/08/23 09:21:00;;;;;;;7.57;2.10;;;38.00;51.60;;;;;;5046346;28;20186;-39
2022/08/23 09:23:47;;;;;;;4.75;2.20;;;38.50;51.70;;;;;;5046854;28;20051;-40
2022/08/23 09:26:26;;;;;;;5.85;2.15;;;38.60;48.50;;;;;;5046290;28;20404;-40
2022/08/23 09:28:58;;;;;;;6.80;2.30;;;38.60;49.50;;;;;;5047061;28;20041;-44
2022/08/23 09:31:44;;;;;;;4.43;2.08;;;38.40;48.70;;;;;;5046884;28;20402;-43
2022/08/23 09:34:37;;;;;;;4.50;1.75;;;38.50;50.10;;;;;;5046701;28;20290;-45
2022/08/23 09:37:16;;;;;;;5.57;2.10;;;38.00;50.20;;;;;;5046086;28;20051;-45
2022/08/23 09:39:46;;;;;;;4.47;1.27;;;37.60;49.70;;;;;;5046101;28;20068;-44
2022/08/23 09:42:31;;;;;;;5.85;2.03;;;37.90;51.10;;;;;;5046494;28;20049;-42
2022/08/23 09:44:57;;;;;;;4.85;1.98;;;38.40;49.70;;;;;;5046096;28;20738;-42
2022/08/23 09:47:40;;;;;;;6.60;1.52;;;38.40;48.50;;;;;;5043683;28;20051;-42
2022/08/23 09:50:30;;;;;;;5.70;2.30;;;38.30;49.30;;;;;;5044037;28;20052;-41
2022/08/23 09:52:59;;;;;;;4.13;1.60;;;38.30;47.50;;;;;;5045874;28;20381;-45
2022/08/23 09:55:34;;;;;;;4.60;1.65;;;38.10;48.00;;;;;;5045835;28;20037;-44
2022/08/23 09:58:02;;;;;;;4.20;1.60;;;37.90;47.10;;;;;;5045726;28;20134;-43
2022/08/23 10:00:32;;;;;;;5.80;1.30;;;37.60;47.20;;;;;;5045826;28;20098;-47
2022/08/23 10:03:25;;;;;;;4.13;1.25;;;37.70;47.90;;;;;;5045755;28;20044;-40
2022/08/23 10:05:58;;;;;;;3.28;0.93;;;37.90;48.80;;;;;;5046083;28;20120;-41
2022/08/23 10:08:32;;;;;;;4.90;1.25;;;37.90;48.00;;;;;;5045190;28;20511;-40
2022/08/23 10:11:04;;;;;;;7.65;1.60;;;38.00;47.30;;;;;;5045860;28;20450;-43
2022/08/23 10:13:30;;;;;;;2.80;0.95;;;38.00;47.10;;;;;;5046060;28;20045;-41
2022/08/23 10:15:58;;;;;;;4.35;1.50;;;38.10;48.10;;;;;;5046039;28;20048;-40
2022/08/23 10:18:24;;;;;;;4.35;1.60;;;38.00;47.90;;;;;;5045451;28;20541;-42
2022/08/23 10:20:56;;;;;;;4.03;1.00;;;37.90;47.50;;;;;;5045566;28;20107;-40
2022/08/23 10:23:49;;;;;;;6.22;1.88;;;37.60;48.00;;;;;;5045769;28;20521;-39
2022/08/23 10:26:23;;;;;;;4.88;1.55;;;37.10;48.50;;;;;;5044256;28;20044;-43
2022/08/23 10:32:12;;;;;;;3.28;1.33;;;35.40;51.80;;;;;;5045587;28;20060;-44
2022/08/23 10:34:41;;;;;;;;;;;35.00;50.80;;;;;;5045980;28;20037;-40
2022/08/23 10:37:34;;;;;;;5.15;1.25;;;34.90;52.10;;;;;;5044958;28;19925;-42
2022/08/23 10:40:09;;;;;;;3.70;1.08;;;34.60;51.20;;;;;;5045668;28;20040;-40
2022/08/23 10:42:53;;;;;;;6.18;1.40;;;34.30;52.00;;;;;;5045862;28;20124;-38
2022/08/23 10:45:31;;;;;;;4.90;1.58;;;33.80;51.60;;;;;;5045079;28;20163;-39
2022/08/23 10:48:11;;;;;;;5.25;1.90;;;33.50;52.90;;;;;;5045151;28;20041;-39
2022/08/23 10:50:52;;;;;;;3.65;1.92;;;32.90;52.00;;;;;;5045006;28;20401;-43
2022/08/23 10:53:19;;;;;;;4.55;1.75;;;32.20;52.60;;;;;;5044559;28;20033;-42
2022/08/23 10:56:01;;;;;;;3.65;1.30;;;31.60;53.20;;;;;;5045335;28;20049;-42
2022/08/23 10:58:37;;;;;;;5.72;1.33;;;31.20;55.50;;;;;;5044226;28;20041;-41
2022/08/23 11:01:04;;;;;;;8.13;1.52;;;30.90;56.30;;;;;;5044696;28;20045;-47
2022/08/23 11:03:34;;;;;;;4.50;1.00;;;30.90;83.70;;;;;;5044527;28;20044;-44
2022/08/23 11:06:24;;;;;;;3.90;0.90;;;30.50;57.20;;;;;;5044544;28;20072;-42
2022/08/23 11:09:07;;;;;;;3.80;1.30;;;30.10;57.70;;;;;;5044550;28;20057;-42
2022/08/23 11:11:40;;;;;;;3.92;1.40;;;29.90;58.00;;;;;;5045045;28;20182;-46
2022/08/23 11:14:30;;;;;;;2.70;1.45;;;29.80;58.90;;;;;;5044845;28;20475;-43
2022/08/23 11:16:59;;;;;;;4.28;1.52;;;29.60;57.80;;;;;;5040231;28;20053;-41
2022/08/23 11:19:49;;;;;;;5.10;1.38;;;29.40;59.00;;;;;;5044425;28;20044;-43
2022/08/23 11:22:20;;;;;;;4.05;1.38;;;29.40;59.30;;;;;;5044275;28;20481;-45
2022/08/23 11:24:56;;;;;;;3.38;1.00;;;29.20;58.40;;;;;;5044505;28;20041;-45
2022/08/23 11:27:28;;;;;;;7.45;1.63;;;29.20;57.90;;;;;;5044232;28;20041;-47
2022/08/23 11:29:55;;;;;;;6.95;1.38;;;29.20;58.10;;;;;;5044824;28;20517;-42
2022/08/23 11:32:32;;;;;;;3.50;0.80;;;29.00;56.80;;;;;;5044097;28;20056;-42
2022/08/23 11:35:25;;;;;;;5.78;1.75;;;28.90;58.30;;;;;;5043906;28;20044;-39
2022/08/23 11:37:55;;;;;;;4.70;1.13;;;28.80;57.90;;;;;;5044172;28;20578;-43
2022/08/23 11:40:45;;;;;;;2.28;0.73;;;28.50;59.00;;;;;;5044305;28;20660;-45
2022/08/23 11:43:35;;;;;;;11.07;1.33;;;28.50;61.00;;;;;;5043953;28;20483;-43
2022/08/23 11:46:25;;;;;;;4.25;1.60;;;28.60;61.50;;;;;;5044569;28;20037;-43
2022/08/23 11:49:10;;;;;;;4.72;1.10;;;28.70;59.00;;;;;;5043001;28;20454;-41
2022/08/23 11:52:14;;;;;;;4.10;1.10;;;28.70;57.80;;;;;;5043836;28;20567;-39
2022/08/23 11:55:18;;;;;;;4.10;0.90;;;28.80;57.50;;;;;;5044298;28;20059;-43
2022/08/23 11:57:55;;;;;;;7.43;1.55;;;28.60;58.30;;;;;;5043914;28;20399;-44
2022/08/23 12:00:58;;;;;;;3.95;1.00;;;28.60;57.80;;;;;;5043796;28;20443;-45
2022/08/23 12:03:34;;;;;;;3.13;0.70;;;28.70;59.30;;;;;;5044031;28;20502;-45
2022/08/23 12:06:43;;;;;;;3.20;1.40;;;28.60;60.90;;;;;;5044816;28;20033;-37
2022/08/23 12:09:24;;;;;;;3.70;0.75;;;28.60;60.90;;;;;;5034543;28;20076;-37
2022/08/23 12:11:56;;;;;;;;;;;28.50;61.00;;;;;;5049334;28;20399;-40
2022/08/23 12:14:35;;;;;;;4.07;1.00;;;28.50;61.00;;;;;;5049711;28;19920;-37
2022/08/23 12:17:25;;;;;;;4.47;0.73;;;28.40;59.70;;;;;;5049361;28;20040;-37
2022/08/23 12:19:59;;;;;;;4.97;1.43;;;28.20;60.90;;;;;;5038570;28;20128;-37
2022/08/23 12:22:28;;;;;;;7.30;1.17;;;28.00;60.40;;;;;;5049596;28;20121;-37
2022/08/23 12:25:04;;;;;;;3.63;0.90;;;27.90;58.70;;;;;;5049781;28;20041;-37
2022/08/23 12:27:59;;;;;;;4.22;0.75;;;28.00;59.30;;;;;;5049369;28;20037;-37
2022/08/23 12:30:33;;;;;;;6.85;1.23;;;27.90;61.60;;;;;;5049379;28;20055;-37
2022/08/23 12:33:22;;;;;;;9.45;1.38;;;27.80;60.70;;;;;;5049765;28;20039;-37
2022/08/23 12:36:00;;;;;;;5.38;1.20;;;27.60;63.20;;;;;;5046628;28;20053;-37
2022/08/23 12:38:56;;;;;;;9.90;1.25;;;27.30;64.70;;;;;;5049236;28;20041;-37
2022/08/23 12:41:26;;;;;;;6.55;1.00;;;27.10;64.20;;;;;;5049533;28;20399;-37
2022/08/23 12:43:57;;;;;;;5.40;0.90;;;26.90;64.80;;;;;;5050164;28;20040;-37
2022/08/23 12:46:33;;;;;;;3.38;1.00;;;26.90;64.30;;;;;;5049707;28;20123;-37
2022/08/23 12:48:59;;;;;;;2.92;0.98;;;26.90;61.90;;;;;;5049346;28;20505;-37
2022/08/23 12:51:25;;;;;;;7.28;1.48;;;27.10;62.20;;;;;;5047692;28;20045;-37
2022/08/23 12:53:51;;;;;;;2.63;0.80;;;27.20;63.00;;;;;;5049514;28;20349;-37
2022/08/23 12:56:18;;;;;;;4.45;1.17;;;27.30;63.80;;;;;;5049019;28;20067;-37
2022/08/23 12:58:51;;;;;;;2.30;1.15;;;27.50;62.20;;;;;;5049093;28;20091;-37
2022/08/23 13:01:37;;;;;;;4.95;1.15;;;27.60;62.60;;;;;;5049440;28;20077;-37
2022/08/23 13:04:10;;;;;;;2.40;1.05;;;27.80;61.30;;;;;;5049589;28;20056;-37
2022/08/23 13:06:43;;;;;;;4.15;1.17;;;28.00;59.60;;;;;;5048875;28;20075;-37
2022/08/23 13:09:22;;;;;;;3.15;0.90;;;28.10;60.20;;;;;;5049208;28;20048;-37
2022/08/23 13:11:48;;;;;;;4.20;0.93;;;28.10;60.40;;;;;;5049678;28;20079;-37
2022/08/23 13:14:26;;;;;;;3.92;1.42;;;28.00;61.20;;;;;;5048555;28;20514;-37